Lisbon, Portugal
Current Conditions -  °F | °C
As of 4:00 AM on Thursday 27 Nov 2014 (Local Time) from LPPT Reporting Station
Broken Clouds Broken Clouds  
Wind Chill: 10°   Ceiling: 200
Heat Index: 10°   Visibility: 6mi
Dew Point: 10°   Wind: 5mph
Humidity: 100%   Direction: 30°NNE
Pressure: 29.53"   Gusts: NA
Location:  38.72°N, 9.14°W
Report Text: LPPT 270400Z 03004KT 9000 BKN002 10/10 Q1000
Loading
Personal Weather Stations






























Interactive Weather Map New forecast layout! Learn more

10-Day Weather Forecast

Advertisements
Track Severe Weather on mobile